sensor_id;sensor_type;location;lat;lon;timestamp;P1;durP1;ratioP1;P2;durP2;ratioP2
14611;SDS011;7392;52.078;11.650;2023-05-16T00:02:21;3.33;;;3.03;;
14611;SDS011;7392;52.078;11.650;2023-05-16T00:04:55;3.77;;;3.33;;
14611;SDS011;7392;52.078;11.650;2023-05-16T00:07:28;3.73;;;3.17;;
14611;SDS011;7392;52.078;11.650;2023-05-16T00:10:00;3.70;;;3.30;;
14611;SDS011;7392;52.078;11.650;2023-05-16T00:12:29;4.47;;;3.37;;
14611;SDS011;7392;52.078;11.650;2023-05-16T00:15:10;3.57;;;3.27;;
14611;SDS011;7392;52.078;11.650;2023-05-16T00:17:45;5.57;;;3.17;;
14611;SDS011;7392;52.078;11.650;2023-05-16T00:20:18;3.60;;;3.30;;
14611;SDS011;7392;52.078;11.650;2023-05-16T00:22:49;6.43;;;4.40;;
14611;SDS011;7392;52.078;11.650;2023-05-16T00:25:49;4.27;;;3.90;;
14611;SDS011;7392;52.078;11.650;2023-05-16T00:28:27;4.70;;;4.30;;
14611;SDS011;7392;52.078;11.650;2023-05-16T00:31:08;4.57;;;4.17;;
14611;SDS011;7392;52.078;11.650;2023-05-16T00:33:49;5.73;;;4.93;;
14611;SDS011;7392;52.078;11.650;2023-05-16T00:36:23;7.50;;;5.60;;
14611;SDS011;7392;52.078;11.650;2023-05-16T00:39:01;6.27;;;5.67;;
14611;SDS011;7392;52.078;11.650;2023-05-16T00:41:31;6.50;;;5.87;;
14611;SDS011;7392;52.078;11.650;2023-05-16T00:44:07;5.97;;;5.40;;
14611;SDS011;7392;52.078;11.650;2023-05-16T00:46:47;5.93;;;5.33;;
14611;SDS011;7392;52.078;11.650;2023-05-16T00:49:20;5.20;;;4.80;;
14611;SDS011;7392;52.078;11.650;2023-05-16T00:51:56;6.70;;;6.10;;
14611;SDS011;7392;52.078;11.650;2023-05-16T00:54:29;7.33;;;6.63;;
14611;SDS011;7392;52.078;11.650;2023-05-16T00:57:04;8.13;;;7.40;;
14611;SDS011;7392;52.078;11.650;2023-05-16T00:59:41;6.93;;;6.33;;
14611;SDS011;7392;52.078;11.650;2023-05-16T01:02:19;7.10;;;6.40;;
14611;SDS011;7392;52.078;11.650;2023-05-16T01:04:55;6.03;;;5.47;;
14611;SDS011;7392;52.078;11.650;2023-05-16T01:07:25;6.63;;;5.77;;
14611;SDS011;7392;52.078;11.650;2023-05-16T01:09:59;6.10;;;5.60;;
14611;SDS011;7392;52.078;11.650;2023-05-16T01:12:40;8.13;;;6.90;;
14611;SDS011;7392;52.078;11.650;2023-05-16T01:15:20;7.67;;;6.87;;
14611;SDS011;7392;52.078;11.650;2023-05-16T01:17:59;6.80;;;6.20;;
14611;SDS011;7392;52.078;11.650;2023-05-16T01:20:35;6.23;;;5.73;;
14611;SDS011;7392;52.078;11.650;2023-05-16T01:23:19;8.03;;;6.53;;
14611;SDS011;7392;52.078;11.650;2023-05-16T01:26:17;6.67;;;6.07;;
14611;SDS011;7392;52.078;11.650;2023-05-16T01:28:50;6.17;;;5.67;;
14611;SDS011;7392;52.078;11.650;2023-05-16T01:31:23;5.83;;;5.23;;
14611;SDS011;7392;52.078;11.650;2023-05-16T01:33:52;5.67;;;5.17;;
14611;SDS011;7392;52.078;11.650;2023-05-16T01:36:31;5.43;;;5.00;;
14611;SDS011;7392;52.078;11.650;2023-05-16T01:39:17;5.50;;;5.00;;
14611;SDS011;7392;52.078;11.650;2023-05-16T01:41:52;5.43;;;4.60;;
14611;SDS011;7392;52.078;11.650;2023-05-16T01:44:40;6.70;;;6.00;;
14611;SDS011;7392;52.078;11.650;2023-05-16T01:47:20;5.00;;;4.30;;
14611;SDS011;7392;52.078;11.650;2023-05-16T01:49:53;4.73;;;4.43;;
14611;SDS011;7392;52.078;11.650;2023-05-16T01:52:29;4.77;;;4.37;;
14611;SDS011;7392;52.078;11.650;2023-05-16T01:55:01;4.67;;;4.10;;
14611;SDS011;7392;52.078;11.650;2023-05-16T01:57:31;5.50;;;5.00;;
14611;SDS011;7392;52.078;11.650;2023-05-16T02:00:00;4.73;;;3.93;;
14611;SDS011;7392;52.078;11.650;2023-05-16T02:02:29;4.80;;;4.40;;
14611;SDS011;7392;52.078;11.650;2023-05-16T02:04:57;4.70;;;4.13;;
14611;SDS011;7392;52.078;11.650;2023-05-16T02:07:25;4.93;;;4.43;;
14611;SDS011;7392;52.078;11.650;2023-05-16T02:09:53;4.70;;;4.23;;
14611;SDS011;7392;52.078;11.650;2023-05-16T02:12:21;4.13;;;3.73;;
14611;SDS011;7392;52.078;11.650;2023-05-16T02:14:50;4.43;;;4.00;;
14611;SDS011;7392;52.078;11.650;2023-05-16T02:17:17;4.57;;;4.17;;
14611;SDS011;7392;52.078;11.650;2023-05-16T02:19:45;4.70;;;4.30;;
14611;SDS011;7392;52.078;11.650;2023-05-16T02:22:13;4.00;;;3.70;;
14611;SDS011;7392;52.078;11.650;2023-05-16T02:24:41;4.87;;;4.10;;
14611;SDS011;7392;52.078;11.650;2023-05-16T02:27:10;3.87;;;3.57;;
14611;SDS011;7392;52.078;11.650;2023-05-16T02:29:38;4.43;;;3.97;;
14611;SDS011;7392;52.078;11.650;2023-05-16T02:32:07;4.50;;;4.10;;
14611;SDS011;7392;52.078;11.650;2023-05-16T02:34:35;4.60;;;4.20;;
14611;SDS011;7392;52.078;11.650;2023-05-16T02:37:03;4.30;;;3.90;;
14611;SDS011;7392;52.078;11.650;2023-05-16T02:39:31;3.67;;;3.37;;
14611;SDS011;7392;52.078;11.650;2023-05-16T02:41:59;5.70;;;3.57;;
14611;SDS011;7392;52.078;11.650;2023-05-16T02:44:27;5.87;;;3.50;;
14611;SDS011;7392;52.078;11.650;2023-05-16T02:46:57;7.50;;;4.10;;
14611;SDS011;7392;52.078;11.650;2023-05-16T02:49:28;3.63;;;3.33;;
14611;SDS011;7392;52.078;11.650;2023-05-16T02:51:58;4.27;;;3.20;;
14611;SDS011;7392;52.078;11.650;2023-05-16T02:54:33;4.07;;;3.20;;
14611;SDS011;7392;52.078;11.650;2023-05-16T02:57:04;3.60;;;2.87;;
14611;SDS011;7392;52.078;11.650;2023-05-16T02:59:34;3.57;;;2.77;;
14611;SDS011;7392;52.078;11.650;2023-05-16T03:02:07;3.60;;;3.10;;
14611;SDS011;7392;52.078;11.650;2023-05-16T03:04:41;3.53;;;2.63;;
14611;SDS011;7392;52.078;11.650;2023-05-16T03:07:16;2.30;;;2.10;;
14611;SDS011;7392;52.078;11.650;2023-05-16T03:09:46;2.50;;;2.23;;
14611;SDS011;7392;52.078;11.650;2023-05-16T03:12:19;2.80;;;2.33;;
14611;SDS011;7392;52.078;11.650;2023-05-16T03:15:01;4.57;;;2.43;;
14611;SDS011;7392;52.078;11.650;2023-05-16T03:17:33;3.40;;;2.10;;
14611;SDS011;7392;52.078;11.650;2023-05-16T03:20:06;2.07;;;1.73;;
14611;SDS011;7392;52.078;11.650;2023-05-16T03:22:45;2.30;;;2.10;;
14611;SDS011;7392;52.078;11.650;2023-05-16T03:25:20;2.87;;;2.00;;
14611;SDS011;7392;52.078;11.650;2023-05-16T03:28:06;2.60;;;2.23;;
14611;SDS011;7392;52.078;11.650;2023-05-16T03:30:42;2.83;;;2.30;;
14611;SDS011;7392;52.078;11.650;2023-05-16T03:33:15;2.70;;;1.90;;
14611;SDS011;7392;52.078;11.650;2023-05-16T03:35:50;3.57;;;2.10;;
14611;SDS011;7392;52.078;11.650;2023-05-16T03:38:24;2.00;;;1.80;;
14611;SDS011;7392;52.078;11.650;2023-05-16T03:40:55;3.37;;;2.30;;
14611;SDS011;7392;52.078;11.650;2023-05-16T03:43:27;2.23;;;1.90;;
14611;SDS011;7392;52.078;11.650;2023-05-16T03:46:08;4.17;;;2.03;;
14611;SDS011;7392;52.078;11.650;2023-05-16T03:48:37;2.27;;;1.73;;
14611;SDS011;7392;52.078;11.650;2023-05-16T03:51:07;1.67;;;1.57;;
14611;SDS011;7392;52.078;11.650;2023-05-16T03:53:40;2.37;;;1.63;;
14611;SDS011;7392;52.078;11.650;2023-05-16T03:56:08;1.90;;;1.80;;
14611;SDS011;7392;52.078;11.650;2023-05-16T03:58:41;2.87;;;1.83;;
14611;SDS011;7392;52.078;11.650;2023-05-16T04:01:18;3.03;;;1.83;;
14611;SDS011;7392;52.078;11.650;2023-05-16T04:04:05;1.93;;;1.50;;
14611;SDS011;7392;52.078;11.650;2023-05-16T04:06:35;2.77;;;1.80;;
14611;SDS011;7392;52.078;11.650;2023-05-16T04:09:22;2.43;;;1.90;;
14611;SDS011;7392;52.078;11.650;2023-05-16T04:12:06;2.37;;;2.13;;
14611;SDS011;7392;52.078;11.650;2023-05-16T04:14:39;2.87;;;1.80;;
14611;SDS011;7392;52.078;11.650;2023-05-16T04:17:07;1.77;;;1.40;;
14611;SDS011;7392;52.078;11.650;2023-05-16T04:19:36;2.97;;;1.80;;
14611;SDS011;7392;52.078;11.650;2023-05-16T04:22:09;2.80;;;2.00;;
14611;SDS011;7392;52.078;11.650;2023-05-16T04:24:38;2.00;;;1.70;;
14611;SDS011;7392;52.078;11.650;2023-05-16T04:27:09;3.40;;;1.80;;
14611;SDS011;7392;52.078;11.650;2023-05-16T04:29:40;2.60;;;1.70;;
14611;SDS011;7392;52.078;11.650;2023-05-16T04:32:14;2.50;;;1.77;;
14611;SDS011;7392;52.078;11.650;2023-05-16T04:34:44;3.03;;;1.87;;
14611;SDS011;7392;52.078;11.650;2023-05-16T04:37:16;1.93;;;1.60;;
14611;SDS011;7392;52.078;11.650;2023-05-16T04:39:46;4.87;;;2.10;;
14611;SDS011;7392;52.078;11.650;2023-05-16T04:42:20;2.40;;;1.70;;
14611;SDS011;7392;52.078;11.650;2023-05-16T04:44:51;2.40;;;1.87;;
14611;SDS011;7392;52.078;11.650;2023-05-16T04:47:24;3.40;;;2.20;;
14611;SDS011;7392;52.078;11.650;2023-05-16T04:49:53;3.00;;;1.97;;
14611;SDS011;7392;52.078;11.650;2023-05-16T04:52:25;3.77;;;1.73;;
14611;SDS011;7392;52.078;11.650;2023-05-16T04:55:01;3.93;;;1.93;;
14611;SDS011;7392;52.078;11.650;2023-05-16T04:57:30;2.73;;;1.80;;
14611;SDS011;7392;52.078;11.650;2023-05-16T05:00:01;1.70;;;1.60;;
14611;SDS011;7392;52.078;11.650;2023-05-16T05:02:46;3.07;;;2.10;;
14611;SDS011;7392;52.078;11.650;2023-05-16T05:05:14;2.90;;;1.60;;
14611;SDS011;7392;52.078;11.650;2023-05-16T05:07:50;2.40;;;1.70;;
14611;SDS011;7392;52.078;11.650;2023-05-16T05:10:24;5.13;;;1.73;;
14611;SDS011;7392;52.078;11.650;2023-05-16T05:13:07;2.30;;;1.67;;
14611;SDS011;7392;52.078;11.650;2023-05-16T05:15:36;2.97;;;1.63;;
14611;SDS011;7392;52.078;11.650;2023-05-16T05:18:06;2.60;;;1.70;;
14611;SDS011;7392;52.078;11.650;2023-05-16T05:20:36;2.03;;;1.40;;
14611;SDS011;7392;52.078;11.650;2023-05-16T05:23:08;2.53;;;1.77;;
14611;SDS011;7392;52.078;11.650;2023-05-16T05:25:37;2.87;;;1.70;;
14611;SDS011;7392;52.078;11.650;2023-05-16T05:28:12;2.00;;;1.50;;
14611;SDS011;7392;52.078;11.650;2023-05-16T05:30:43;1.70;;;1.57;;
14611;SDS011;7392;52.078;11.650;2023-05-16T05:33:15;1.53;;;1.30;;
14611;SDS011;7392;52.078;11.650;2023-05-16T05:35:44;2.53;;;1.63;;
14611;SDS011;7392;52.078;11.650;2023-05-16T05:38:19;2.70;;;1.33;;
14611;SDS011;7392;52.078;11.650;2023-05-16T05:40:48;1.90;;;1.43;;
14611;SDS011;7392;52.078;11.650;2023-05-16T05:43:16;2.07;;;1.47;;
14611;SDS011;7392;52.078;11.650;2023-05-16T05:45:52;3.20;;;1.60;;
14611;SDS011;7392;52.078;11.650;2023-05-16T05:48:24;2.57;;;1.47;;
14611;SDS011;7392;52.078;11.650;2023-05-16T05:51:03;2.37;;;1.40;;
14611;SDS011;7392;52.078;11.650;2023-05-16T05:53:37;2.00;;;1.30;;
14611;SDS011;7392;52.078;11.650;2023-05-16T05:56:07;2.33;;;1.40;;
14611;SDS011;7392;52.078;11.650;2023-05-16T05:58:38;2.03;;;1.50;;
14611;SDS011;7392;52.078;11.650;2023-05-16T06:01:12;1.00;;;1.00;;
14611;SDS011;7392;52.078;11.650;2023-05-16T06:03:50;1.97;;;1.43;;
14611;SDS011;7392;52.078;11.650;2023-05-16T06:06:27;2.93;;;1.40;;
14611;SDS011;7392;52.078;11.650;2023-05-16T06:08:59;2.17;;;1.40;;
14611;SDS011;7392;52.078;11.650;2023-05-16T06:11:31;1.90;;;1.10;;
14611;SDS011;7392;52.078;11.650;2023-05-16T06:14:03;2.30;;;1.20;;
14611;SDS011;7392;52.078;11.650;2023-05-16T06:16:32;2.67;;;1.30;;
14611;SDS011;7392;52.078;11.650;2023-05-16T06:19:01;1.17;;;0.97;;
14611;SDS011;7392;52.078;11.650;2023-05-16T06:21:33;2.20;;;1.13;;
14611;SDS011;7392;52.078;11.650;2023-05-16T06:24:04;2.00;;;1.00;;
14611;SDS011;7392;52.078;11.650;2023-05-16T06:26:42;1.90;;;1.10;;
14611;SDS011;7392;52.078;11.650;2023-05-16T06:29:33;1.17;;;0.90;;
14611;SDS011;7392;52.078;11.650;2023-05-16T06:32:13;1.60;;;0.87;;
14611;SDS011;7392;52.078;11.650;2023-05-16T06:34:50;2.17;;;1.10;;
14611;SDS011;7392;52.078;11.650;2023-05-16T06:37:21;2.80;;;1.10;;
14611;SDS011;7392;52.078;11.650;2023-05-16T06:39:55;2.23;;;1.10;;
14611;SDS011;7392;52.078;11.650;2023-05-16T06:42:25;2.33;;;1.27;;
14611;SDS011;7392;52.078;11.650;2023-05-16T06:44:58;2.53;;;1.23;;
14611;SDS011;7392;52.078;11.650;2023-05-16T06:47:31;2.77;;;1.63;;
14611;SDS011;7392;52.078;11.650;2023-05-16T06:50:15;2.03;;;1.20;;
14611;SDS011;7392;52.078;11.650;2023-05-16T06:52:56;1.57;;;1.23;;
14611;SDS011;7392;52.078;11.650;2023-05-16T06:55:34;2.37;;;1.60;;
14611;SDS011;7392;52.078;11.650;2023-05-16T06:58:05;1.60;;;1.20;;
14611;SDS011;7392;52.078;11.650;2023-05-16T07:00:36;2.03;;;1.20;;
14611;SDS011;7392;52.078;11.650;2023-05-16T07:03:28;1.73;;;1.17;;
14611;SDS011;7392;52.078;11.650;2023-05-16T07:05:59;2.00;;;1.10;;
14611;SDS011;7392;52.078;11.650;2023-05-16T07:08:31;2.40;;;1.33;;
14611;SDS011;7392;52.078;11.650;2023-05-16T07:11:07;2.40;;;1.23;;
14611;SDS011;7392;52.078;11.650;2023-05-16T07:13:41;4.60;;;1.40;;
14611;SDS011;7392;52.078;11.650;2023-05-16T07:16:15;3.23;;;1.30;;
14611;SDS011;7392;52.078;11.650;2023-05-16T07:18:58;3.63;;;1.00;;
14611;SDS011;7392;52.078;11.650;2023-05-16T07:21:32;2.37;;;1.10;;
14611;SDS011;7392;52.078;11.650;2023-05-16T07:24:06;2.77;;;1.20;;
14611;SDS011;7392;52.078;11.650;2023-05-16T07:26:39;1.70;;;0.93;;
14611;SDS011;7392;52.078;11.650;2023-05-16T07:29:19;4.90;;;1.43;;
14611;SDS011;7392;52.078;11.650;2023-05-16T07:31:53;2.73;;;1.20;;
14611;SDS011;7392;52.078;11.650;2023-05-16T07:34:26;3.57;;;1.13;;
14611;SDS011;7392;52.078;11.650;2023-05-16T07:37:01;2.10;;;1.20;;
14611;SDS011;7392;52.078;11.650;2023-05-16T07:39:33;2.37;;;1.10;;
14611;SDS011;7392;52.078;11.650;2023-05-16T07:42:11;2.43;;;1.20;;
14611;SDS011;7392;52.078;11.650;2023-05-16T07:44:51;3.20;;;1.40;;
14611;SDS011;7392;52.078;11.650;2023-05-16T07:47:20;2.63;;;1.17;;
14611;SDS011;7392;52.078;11.650;2023-05-16T07:49:48;2.47;;;1.17;;
14611;SDS011;7392;52.078;11.650;2023-05-16T07:52:15;3.37;;;1.00;;
14611;SDS011;7392;52.078;11.650;2023-05-16T07:54:45;0.93;;;0.80;;
14611;SDS011;7392;52.078;11.650;2023-05-16T07:57:14;2.70;;;1.10;;
14611;SDS011;7392;52.078;11.650;2023-05-16T07:59:43;3.77;;;1.30;;
14611;SDS011;7392;52.078;11.650;2023-05-16T08:02:13;2.40;;;1.10;;
14611;SDS011;7392;52.078;11.650;2023-05-16T08:04:41;3.43;;;1.27;;
14611;SDS011;7392;52.078;11.650;2023-05-16T08:07:09;3.57;;;1.40;;
14611;SDS011;7392;52.078;11.650;2023-05-16T08:09:37;2.63;;;1.23;;
14611;SDS011;7392;52.078;11.650;2023-05-16T08:12:05;4.90;;;1.80;;
14611;SDS011;7392;52.078;11.650;2023-05-16T08:14:34;4.40;;;1.57;;
14611;SDS011;7392;52.078;11.650;2023-05-16T08:17:03;6.93;;;2.07;;
14611;SDS011;7392;52.078;11.650;2023-05-16T08:19:31;3.40;;;1.40;;
14611;SDS011;7392;52.078;11.650;2023-05-16T08:21:59;2.90;;;1.60;;
14611;SDS011;7392;52.078;11.650;2023-05-16T08:24:28;5.57;;;1.40;;
14611;SDS011;7392;52.078;11.650;2023-05-16T08:26:56;1.97;;;1.10;;
14611;SDS011;7392;52.078;11.650;2023-05-16T08:29:23;4.27;;;1.67;;
14611;SDS011;7392;52.078;11.650;2023-05-16T08:31:53;7.20;;;1.80;;
14611;SDS011;7392;52.078;11.650;2023-05-16T08:34:21;4.03;;;1.57;;
14611;SDS011;7392;52.078;11.650;2023-05-16T08:36:48;3.90;;;1.67;;
14611;SDS011;7392;52.078;11.650;2023-05-16T08:39:16;3.30;;;1.50;;
14611;SDS011;7392;52.078;11.650;2023-05-16T08:41:44;3.37;;;1.37;;
14611;SDS011;7392;52.078;11.650;2023-05-16T08:44:12;2.87;;;1.40;;
14611;SDS011;7392;52.078;11.650;2023-05-16T08:46:48;3.37;;;1.40;;
14611;SDS011;7392;52.078;11.650;2023-05-16T08:49:20;3.73;;;1.50;;
14611;SDS011;7392;52.078;11.650;2023-05-16T08:51:49;3.37;;;1.30;;
14611;SDS011;7392;52.078;11.650;2023-05-16T08:54:18;4.37;;;1.60;;
14611;SDS011;7392;52.078;11.650;2023-05-16T08:56:48;4.33;;;1.60;;
14611;SDS011;7392;52.078;11.650;2023-05-16T08:59:16;4.90;;;1.83;;
14611;SDS011;7392;52.078;11.650;2023-05-16T09:01:44;6.03;;;1.67;;
14611;SDS011;7392;52.078;11.650;2023-05-16T09:04:13;3.90;;;1.40;;
14611;SDS011;7392;52.078;11.650;2023-05-16T09:06:43;2.93;;;1.30;;
14611;SDS011;7392;52.078;11.650;2023-05-16T09:09:11;4.63;;;1.80;;
14611;SDS011;7392;52.078;11.650;2023-05-16T09:11:39;5.53;;;1.67;;
14611;SDS011;7392;52.078;11.650;2023-05-16T09:14:08;5.70;;;1.60;;
14611;SDS011;7392;52.078;11.650;2023-05-16T09:16:36;2.63;;;1.60;;
14611;SDS011;7392;52.078;11.650;2023-05-16T09:19:04;6.07;;;1.80;;
14611;SDS011;7392;52.078;11.650;2023-05-16T09:21:33;7.37;;;1.70;;
14611;SDS011;7392;52.078;11.650;2023-05-16T09:24:03;2.20;;;1.10;;
14611;SDS011;7392;52.078;11.650;2023-05-16T09:26:31;2.67;;;1.27;;
14611;SDS011;7392;52.078;11.650;2023-05-16T09:28:59;5.53;;;1.50;;
14611;SDS011;7392;52.078;11.650;2023-05-16T09:31:28;3.33;;;1.20;;
14611;SDS011;7392;52.078;11.650;2023-05-16T09:34:02;3.97;;;1.37;;
14611;SDS011;7392;52.078;11.650;2023-05-16T09:36:31;5.00;;;1.90;;
14611;SDS011;7392;52.078;11.650;2023-05-16T09:38:59;3.10;;;1.40;;
14611;SDS011;7392;52.078;11.650;2023-05-16T09:41:28;5.53;;;1.77;;
14611;SDS011;7392;52.078;11.650;2023-05-16T09:44:02;10.67;;;2.07;;
14611;SDS011;7392;52.078;11.650;2023-05-16T09:46:32;6.60;;;1.93;;
14611;SDS011;7392;52.078;11.650;2023-05-16T09:49:00;5.50;;;2.20;;
14611;SDS011;7392;52.078;11.650;2023-05-16T09:51:29;5.37;;;1.97;;
14611;SDS011;7392;52.078;11.650;2023-05-16T09:53:57;6.43;;;2.00;;
14611;SDS011;7392;52.078;11.650;2023-05-16T09:56:25;5.57;;;1.83;;
14611;SDS011;7392;52.078;11.650;2023-05-16T09:58:56;5.63;;;1.83;;
14611;SDS011;7392;52.078;11.650;2023-05-16T10:01:24;4.73;;;1.60;;
14611;SDS011;7392;52.078;11.650;2023-05-16T10:03:52;3.90;;;1.50;;
14611;SDS011;7392;52.078;11.650;2023-05-16T10:06:20;3.50;;;1.60;;
14611;SDS011;7392;52.078;11.650;2023-05-16T10:08:48;4.73;;;1.67;;
14611;SDS011;7392;52.078;11.650;2023-05-16T10:11:17;3.80;;;1.07;;
14611;SDS011;7392;52.078;11.650;2023-05-16T10:13:45;6.10;;;1.83;;
14611;SDS011;7392;52.078;11.650;2023-05-16T10:16:20;4.07;;;1.57;;
14611;SDS011;7392;52.078;11.650;2023-05-16T10:18:49;4.37;;;1.80;;
14611;SDS011;7392;52.078;11.650;2023-05-16T10:21:18;3.23;;;1.33;;
14611;SDS011;7392;52.078;11.650;2023-05-16T10:23:49;3.20;;;1.27;;
14611;SDS011;7392;52.078;11.650;2023-05-16T10:26:18;4.33;;;1.43;;
14611;SDS011;7392;52.078;11.650;2023-05-16T10:28:48;5.33;;;1.90;;
14611;SDS011;7392;52.078;11.650;2023-05-16T10:31:17;5.27;;;1.53;;
14611;SDS011;7392;52.078;11.650;2023-05-16T10:33:46;4.43;;;1.70;;
14611;SDS011;7392;52.078;11.650;2023-05-16T10:36:14;4.53;;;1.73;;
14611;SDS011;7392;52.078;11.650;2023-05-16T10:38:43;5.33;;;1.83;;
14611;SDS011;7392;52.078;11.650;2023-05-16T10:41:11;4.73;;;1.90;;
14611;SDS011;7392;52.078;11.650;2023-05-16T10:43:43;4.87;;;1.40;;
14611;SDS011;7392;52.078;11.650;2023-05-16T10:46:11;2.93;;;1.33;;
14611;SDS011;7392;52.078;11.650;2023-05-16T10:48:40;5.67;;;1.60;;
14611;SDS011;7392;52.078;11.650;2023-05-16T10:54:05;4.77;;;1.73;;
14611;SDS011;7392;52.078;11.650;2023-05-16T10:56:35;8.50;;;1.83;;
14611;SDS011;7392;52.078;11.650;2023-05-16T10:59:03;4.00;;;1.57;;
14611;SDS011;7392;52.078;11.650;2023-05-16T11:01:31;4.43;;;1.53;;
14611;SDS011;7392;52.078;11.650;2023-05-16T11:04:08;3.97;;;1.47;;
14611;SDS011;7392;52.078;11.650;2023-05-16T11:06:44;2.80;;;1.30;;
14611;SDS011;7392;52.078;11.650;2023-05-16T11:09:17;4.17;;;1.70;;
14611;SDS011;7392;52.078;11.650;2023-05-16T11:11:53;3.47;;;1.40;;
14611;SDS011;7392;52.078;11.650;2023-05-16T11:14:33;3.67;;;1.40;;
14611;SDS011;7392;52.078;11.650;2023-05-16T11:17:05;4.70;;;1.37;;
14611;SDS011;7392;52.078;11.650;2023-05-16T11:19:38;3.07;;;1.17;;
14611;SDS011;7392;52.078;11.650;2023-05-16T11:22:09;6.40;;;1.60;;
14611;SDS011;7392;52.078;11.650;2023-05-16T11:24:47;2.30;;;1.37;;
14611;SDS011;7392;52.078;11.650;2023-05-16T11:27:19;3.13;;;1.47;;
14611;SDS011;7392;52.078;11.650;2023-05-16T11:29:49;2.47;;;1.20;;
14611;SDS011;7392;52.078;11.650;2023-05-16T11:32:18;3.47;;;1.30;;
14611;SDS011;7392;52.078;11.650;2023-05-16T11:34:47;3.10;;;1.23;;
14611;SDS011;7392;52.078;11.650;2023-05-16T11:37:17;3.57;;;1.10;;
14611;SDS011;7392;52.078;11.650;2023-05-16T11:39:46;3.20;;;1.07;;
14611;SDS011;7392;52.078;11.650;2023-05-16T11:42:14;3.80;;;1.50;;
14611;SDS011;7392;52.078;11.650;2023-05-16T11:44:43;3.37;;;1.37;;
14611;SDS011;7392;52.078;11.650;2023-05-16T11:47:11;6.20;;;1.73;;
14611;SDS011;7392;52.078;11.650;2023-05-16T11:49:39;4.13;;;1.37;;
14611;SDS011;7392;52.078;11.650;2023-05-16T11:52:06;2.53;;;1.20;;
14611;SDS011;7392;52.078;11.650;2023-05-16T11:54:37;2.57;;;1.10;;
14611;SDS011;7392;52.078;11.650;2023-05-16T11:57:06;3.50;;;1.50;;
14611;SDS011;7392;52.078;11.650;2023-05-16T11:59:35;3.97;;;1.40;;
14611;SDS011;7392;52.078;11.650;2023-05-16T12:02:03;3.47;;;1.30;;
14611;SDS011;7392;52.078;11.650;2023-05-16T12:04:32;4.90;;;1.50;;
14611;SDS011;7392;52.078;11.650;2023-05-16T12:07:00;4.13;;;1.50;;
14611;SDS011;7392;52.078;11.650;2023-05-16T12:09:29;3.30;;;1.47;;
14611;SDS011;7392;52.078;11.650;2023-05-16T12:11:58;3.47;;;1.30;;
14611;SDS011;7392;52.078;11.650;2023-05-16T12:14:25;3.97;;;1.40;;
14611;SDS011;7392;52.078;11.650;2023-05-16T12:16:53;3.37;;;1.23;;
14611;SDS011;7392;52.078;11.650;2023-05-16T12:19:22;2.67;;;1.43;;
14611;SDS011;7392;52.078;11.650;2023-05-16T12:21:53;3.87;;;1.00;;
14611;SDS011;7392;52.078;11.650;2023-05-16T12:24:21;3.60;;;1.50;;
14611;SDS011;7392;52.078;11.650;2023-05-16T12:26:57;3.47;;;1.37;;
14611;SDS011;7392;52.078;11.650;2023-05-16T12:29:25;4.43;;;1.53;;
14611;SDS011;7392;52.078;11.650;2023-05-16T12:31:52;2.20;;;1.03;;
14611;SDS011;7392;52.078;11.650;2023-05-16T12:34:20;1.73;;;0.93;;
14611;SDS011;7392;52.078;11.650;2023-05-16T12:36:51;2.87;;;1.50;;
14611;SDS011;7392;52.078;11.650;2023-05-16T12:39:20;3.10;;;1.20;;
14611;SDS011;7392;52.078;11.650;2023-05-16T12:41:49;2.83;;;1.17;;
14611;SDS011;7392;52.078;11.650;2023-05-16T12:44:18;1.17;;;0.87;;
14611;SDS011;7392;52.078;11.650;2023-05-16T12:46:48;1.07;;;0.70;;
14611;SDS011;7392;52.078;11.650;2023-05-16T12:49:18;4.03;;;1.10;;
14611;SDS011;7392;52.078;11.650;2023-05-16T12:51:48;2.07;;;1.30;;
14611;SDS011;7392;52.078;11.650;2023-05-16T12:54:17;5.00;;;1.10;;
14611;SDS011;7392;52.078;11.650;2023-05-16T12:56:45;1.80;;;1.00;;
14611;SDS011;7392;52.078;11.650;2023-05-16T12:59:13;1.50;;;0.93;;
14611;SDS011;7392;52.078;11.650;2023-05-16T13:01:55;1.10;;;0.80;;
14611;SDS011;7392;52.078;11.650;2023-05-16T13:04:29;2.37;;;1.00;;
14611;SDS011;7392;52.078;11.650;2023-05-16T13:06:57;1.97;;;0.80;;
14611;SDS011;7392;52.078;11.650;2023-05-16T13:09:25;2.20;;;1.00;;
14611;SDS011;7392;52.078;11.650;2023-05-16T13:12:07;3.20;;;1.07;;
14611;SDS011;7392;52.078;11.650;2023-05-16T13:14:34;2.53;;;0.90;;
14611;SDS011;7392;52.078;11.650;2023-05-16T13:17:04;4.07;;;1.27;;
14611;SDS011;7392;52.078;11.650;2023-05-16T13:19:32;2.70;;;1.20;;
14611;SDS011;7392;52.078;11.650;2023-05-16T13:22:00;2.17;;;1.10;;
14611;SDS011;7392;52.078;11.650;2023-05-16T13:24:27;2.67;;;0.90;;
14611;SDS011;7392;52.078;11.650;2023-05-16T13:26:56;1.93;;;1.00;;
14611;SDS011;7392;52.078;11.650;2023-05-16T13:29:24;2.37;;;1.00;;
14611;SDS011;7392;52.078;11.650;2023-05-16T13:31:52;2.70;;;1.10;;
14611;SDS011;7392;52.078;11.650;2023-05-16T13:34:21;2.77;;;1.30;;
14611;SDS011;7392;52.078;11.650;2023-05-16T13:36:49;1.90;;;0.80;;
14611;SDS011;7392;52.078;11.650;2023-05-16T13:39:20;2.43;;;1.20;;
14611;SDS011;7392;52.078;11.650;2023-05-16T13:41:48;2.67;;;1.10;;
14611;SDS011;7392;52.078;11.650;2023-05-16T13:44:17;5.30;;;1.37;;
14611;SDS011;7392;52.078;11.650;2023-05-16T13:46:45;2.40;;;1.00;;
14611;SDS011;7392;52.078;11.650;2023-05-16T13:49:13;3.27;;;1.33;;
14611;SDS011;7392;52.078;11.650;2023-05-16T13:51:42;2.03;;;1.10;;
14611;SDS011;7392;52.078;11.650;2023-05-16T13:54:10;2.30;;;0.87;;
14611;SDS011;7392;52.078;11.650;2023-05-16T13:56:37;2.13;;;1.00;;
14611;SDS011;7392;52.078;11.650;2023-05-16T13:59:05;2.37;;;1.33;;
14611;SDS011;7392;52.078;11.650;2023-05-16T14:01:36;1.83;;;0.90;;
14611;SDS011;7392;52.078;11.650;2023-05-16T14:04:04;2.97;;;1.00;;
14611;SDS011;7392;52.078;11.650;2023-05-16T14:06:32;2.53;;;0.90;;
14611;SDS011;7392;52.078;11.650;2023-05-16T14:09:01;1.67;;;0.87;;
14611;SDS011;7392;52.078;11.650;2023-05-16T14:11:29;2.17;;;1.07;;
14611;SDS011;7392;52.078;11.650;2023-05-16T14:13:57;4.67;;;1.20;;
14611;SDS011;7392;52.078;11.650;2023-05-16T14:16:25;2.10;;;1.03;;
14611;SDS011;7392;52.078;11.650;2023-05-16T14:18:54;1.57;;;1.10;;
14611;SDS011;7392;52.078;11.650;2023-05-16T14:21:22;3.77;;;1.40;;
14611;SDS011;7392;52.078;11.650;2023-05-16T14:23:50;4.03;;;1.30;;
14611;SDS011;7392;52.078;11.650;2023-05-16T14:26:19;1.90;;;0.73;;
14611;SDS011;7392;52.078;11.650;2023-05-16T14:28:50;2.10;;;1.00;;
14611;SDS011;7392;52.078;11.650;2023-05-16T14:31:18;1.97;;;0.90;;
14611;SDS011;7392;52.078;11.650;2023-05-16T14:33:46;2.33;;;0.80;;
14611;SDS011;7392;52.078;11.650;2023-05-16T14:36:13;2.67;;;1.00;;
14611;SDS011;7392;52.078;11.650;2023-05-16T14:38:42;1.73;;;0.97;;
14611;SDS011;7392;52.078;11.650;2023-05-16T14:41:10;3.73;;;0.93;;
14611;SDS011;7392;52.078;11.650;2023-05-16T14:43:39;2.10;;;1.07;;
14611;SDS011;7392;52.078;11.650;2023-05-16T14:46:06;2.40;;;1.00;;
14611;SDS011;7392;52.078;11.650;2023-05-16T14:48:34;2.00;;;1.00;;
14611;SDS011;7392;52.078;11.650;2023-05-16T14:51:02;1.47;;;1.00;;
14611;SDS011;7392;52.078;11.650;2023-05-16T14:53:30;3.07;;;1.07;;
14611;SDS011;7392;52.078;11.650;2023-05-16T14:55:58;1.53;;;0.80;;
14611;SDS011;7392;52.078;11.650;2023-05-16T14:58:28;2.20;;;0.80;;
14611;SDS011;7392;52.078;11.650;2023-05-16T15:00:57;2.77;;;0.87;;
14611;SDS011;7392;52.078;11.650;2023-05-16T15:03:25;2.13;;;1.00;;
14611;SDS011;7392;52.078;11.650;2023-05-16T15:05:52;1.33;;;1.00;;
14611;SDS011;7392;52.078;11.650;2023-05-16T15:08:20;2.77;;;1.20;;
14611;SDS011;7392;52.078;11.650;2023-05-16T15:10:48;2.27;;;1.10;;
14611;SDS011;7392;52.078;11.650;2023-05-16T15:13:16;4.77;;;0.90;;
14611;SDS011;7392;52.078;11.650;2023-05-16T15:15:44;1.70;;;0.93;;
14611;SDS011;7392;52.078;11.650;2023-05-16T15:18:13;2.83;;;1.30;;